createdAt,value
2023-09-11T00:01:23.725Z,13.27
2023-09-11T00:04:26.941Z,12.88
2023-09-11T00:07:30.154Z,14.00
2023-09-11T00:10:33.768Z,12.70
2023-09-11T00:13:38.336Z,12.93
2023-09-11T00:16:43.128Z,12.77
2023-09-11T00:19:46.145Z,12.80
2023-09-11T00:22:50.066Z,12.83
2023-09-11T00:25:53.304Z,12.90
2023-09-11T00:28:57.572Z,13.27
2023-09-11T00:32:00.552Z,12.52
2023-09-11T00:35:03.786Z,12.32
2023-09-11T00:38:06.712Z,12.70
2023-09-11T00:41:09.968Z,11.93
2023-09-11T00:44:14.347Z,12.55
2023-09-11T00:47:17.341Z,11.82
2023-09-11T00:50:21.055Z,12.00
2023-09-11T00:53:24.080Z,11.77
2023-09-11T00:56:27.568Z,11.90
2023-09-11T00:59:32.029Z,11.65
2023-09-11T01:02:35.282Z,12.52
2023-09-11T01:05:38.614Z,12.07
2023-09-11T01:08:42.173Z,12.33
2023-09-11T01:11:45.445Z,11.68
2023-09-11T01:14:49.920Z,12.07
2023-09-11T01:18:01.571Z,11.80
2023-09-11T01:21:33.352Z,12.45
2023-09-11T01:25:01.352Z,11.18
2023-09-11T01:28:30.377Z,12.07
2023-09-11T01:31:36.049Z,9.93
2023-09-11T01:34:39.267Z,10.17
2023-09-11T01:37:42.235Z,10.60
2023-09-11T01:40:47.292Z,9.98
2023-09-11T01:43:52.228Z,10.00
2023-09-11T01:46:59.326Z,9.50
2023-09-11T01:50:03.885Z,9.50
2023-09-11T01:53:07.074Z,9.63
2023-09-11T01:56:11.762Z,9.35
2023-09-11T01:59:15.817Z,9.52
2023-09-11T02:02:20.252Z,9.60
2023-09-11T02:05:23.362Z,9.05
2023-09-11T02:08:27.618Z,8.73
2023-09-11T02:11:30.698Z,9.05
2023-09-11T02:14:33.704Z,9.43
2023-09-11T02:17:38.135Z,8.87
2023-09-11T02:20:41.250Z,9.25
2023-09-11T02:23:44.310Z,8.88
2023-09-11T02:26:47.567Z,9.45
2023-09-11T02:29:50.839Z,8.77
2023-09-11T02:32:55.248Z,9.02
2023-09-11T02:36:01.001Z,8.68
2023-09-11T02:39:04.123Z,8.77
2023-09-11T02:42:07.482Z,8.35
2023-09-11T02:45:11.190Z,8.80
2023-09-11T02:48:15.528Z,8.93
2023-09-11T02:51:18.965Z,9.02
2023-09-11T02:54:21.921Z,8.55
2023-09-11T02:57:26.666Z,8.87
2023-09-11T03:00:30.830Z,8.52
2023-09-11T03:03:35.347Z,8.80
2023-09-11T03:06:38.351Z,8.65
2023-09-11T03:09:41.280Z,8.37
2023-09-11T03:12:44.326Z,8.38
2023-09-11T03:15:47.407Z,8.63
2023-09-11T03:18:51.757Z,8.52
2023-09-11T03:21:56.074Z,8.30
2023-09-11T03:24:59.160Z,8.43
2023-09-11T03:28:02.185Z,8.52
2023-09-11T03:31:05.222Z,8.02
2023-09-11T03:34:09.654Z,8.73
2023-09-11T03:37:12.699Z,8.38
2023-09-11T03:40:16.311Z,8.60
2023-09-11T03:43:19.484Z,8.63
2023-09-11T03:46:22.632Z,8.17
2023-09-11T03:49:26.952Z,9.23
2023-09-11T03:52:30.016Z,8.63
2023-09-11T03:55:33.178Z,9.25
2023-09-11T03:58:36.116Z,9.05
2023-09-11T04:01:39.042Z,8.32
2023-09-11T04:04:43.454Z,9.52
2023-09-11T04:07:46.506Z,9.67
2023-09-11T04:10:49.467Z,8.75
2023-09-11T04:13:52.496Z,9.23
2023-09-11T04:16:55.421Z,8.95
2023-09-11T04:19:59.817Z,9.02
2023-09-11T04:23:03.533Z,8.80
2023-09-11T04:26:07.981Z,8.67
2023-09-11T04:29:12.851Z,8.75
2023-09-11T04:32:15.818Z,8.52
2023-09-11T04:35:21.283Z,9.53
2023-09-11T04:38:24.443Z,9.25
2023-09-11T04:41:27.788Z,9.77
2023-09-11T04:44:30.898Z,8.48
2023-09-11T04:47:33.941Z,10.45
2023-09-11T04:50:38.424Z,9.43
2023-09-11T04:53:41.583Z,9.15
2023-09-11T04:56:44.559Z,9.23
2023-09-11T04:59:47.520Z,9.27
2023-09-11T05:02:51.699Z,10.52
2023-09-11T05:05:56.120Z,9.05
2023-09-11T05:09:10.928Z,9.93
2023-09-11T05:12:14.895Z,9.93
2023-09-11T05:15:17.867Z,8.90
2023-09-11T05:18:20.842Z,9.03
2023-09-11T05:21:25.239Z,10.63
2023-09-11T05:24:28.377Z,10.35
2023-09-11T05:27:31.318Z,9.38
2023-09-11T05:30:34.486Z,9.73
2023-09-11T05:33:37.554Z,9.60
2023-09-11T05:36:42.276Z,9.47
2023-09-11T05:39:46.339Z,9.82
2023-09-11T05:42:49.291Z,9.52
2023-09-11T05:45:53.499Z,9.68
2023-09-11T05:48:56.703Z,9.70
2023-09-11T05:52:01.095Z,11.20
2023-09-11T05:55:04.124Z,10.63
2023-09-11T05:58:07.171Z,10.32
2023-09-11T06:01:10.171Z,9.77
2023-09-11T06:04:13.255Z,10.23
2023-09-11T06:07:17.810Z,10.10
2023-09-11T06:10:20.751Z,10.45
2023-09-11T06:13:23.800Z,10.20
2023-09-11T06:16:26.793Z,10.38
2023-09-11T06:19:29.762Z,11.15
2023-09-11T06:22:34.115Z,10.37
2023-09-11T06:25:37.193Z,10.27
2023-09-11T06:28:40.378Z,10.93
2023-09-11T06:31:43.655Z,11.55
2023-09-11T06:34:46.732Z,12.52
2023-09-11T06:37:51.067Z,11.55
2023-09-11T06:40:54.043Z,11.82
2023-09-11T06:43:57.147Z,10.90
2023-09-11T06:47:00.199Z,11.30
2023-09-11T06:50:03.215Z,11.55
2023-09-11T06:53:09.690Z,10.63
2023-09-11T06:56:12.936Z,11.80
2023-09-11T06:59:15.868Z,10.50
2023-09-11T07:02:18.793Z,10.07
2023-09-11T07:05:23.641Z,10.85
2023-09-11T07:08:28.096Z,11.30
2023-09-11T07:11:31.091Z,11.35
2023-09-11T07:14:34.137Z,11.38
2023-09-11T07:17:37.152Z,10.32
2023-09-11T07:20:40.188Z,10.80
2023-09-11T07:23:44.586Z,10.48
2023-09-11T07:26:47.654Z,10.73
2023-09-11T07:29:51.217Z,10.50
2023-09-11T07:32:54.625Z,10.70
2023-09-11T07:35:57.925Z,10.38
2023-09-11T07:39:02.390Z,10.82
2023-09-11T07:42:05.800Z,11.02
2023-09-11T07:45:10.532Z,11.40
2023-09-11T07:48:13.702Z,10.65
2023-09-11T07:51:16.794Z,10.57
2023-09-11T07:54:22.302Z,10.35
2023-09-11T07:57:25.799Z,11.18
2023-09-11T08:00:31.921Z,10.00
2023-09-11T08:03:35.740Z,10.20
2023-09-11T08:06:38.902Z,9.68
2023-09-11T08:09:43.386Z,9.77
2023-09-11T08:12:46.329Z,9.63
2023-09-11T08:15:49.248Z,9.55
2023-09-11T08:18:52.304Z,9.35
2023-09-11T08:21:55.780Z,9.82
2023-09-11T08:25:00.103Z,10.10
2023-09-11T08:28:03.398Z,10.35
2023-09-11T08:31:06.386Z,9.75
2023-09-11T08:34:10.124Z,10.35
2023-09-11T08:37:13.075Z,10.15
2023-09-11T08:40:17.970Z,9.63
2023-09-11T08:43:25.349Z,9.63
2023-09-11T08:46:31.653Z,9.65
2023-09-11T08:49:39.836Z,10.20
2023-09-11T08:52:42.915Z,9.67
2023-09-11T08:55:47.961Z,9.02
2023-09-11T08:58:53.378Z,9.32
2023-09-11T09:01:57.143Z,8.95
2023-09-11T09:05:00.885Z,9.27
2023-09-11T09:08:06.641Z,9.38
2023-09-11T09:11:11.204Z,8.67
2023-09-11T09:14:16.300Z,8.75
2023-09-11T09:17:19.325Z,8.27
2023-09-11T09:20:22.580Z,8.27
2023-09-11T09:23:34.392Z,8.95
2023-09-11T09:26:58.297Z,8.25
2023-09-11T09:30:01.510Z,8.52
2023-09-11T09:33:05.227Z,7.75
2023-09-11T09:36:09.606Z,7.80
2023-09-11T09:39:13.036Z,8.23
2023-09-11T09:42:18.073Z,7.03
2023-09-11T09:45:30.630Z,7.38
2023-09-11T09:48:33.641Z,7.70
2023-09-11T09:51:47.308Z,7.60
2023-09-11T09:54:53.087Z,7.50
2023-09-11T09:57:57.953Z,7.35
2023-09-11T10:01:03.546Z,8.53
2023-09-11T10:04:17.562Z,7.60
2023-09-11T10:07:37.657Z,7.22
2023-09-11T10:10:40.664Z,7.78
2023-09-11T10:13:46.529Z,7.32
2023-09-11T10:16:50.422Z,7.38
2023-09-11T10:19:54.569Z,7.47
2023-09-11T10:23:00.271Z,7.20
2023-09-11T10:26:09.398Z,6.72
2023-09-11T10:29:19.786Z,6.85
2023-09-11T10:32:27.165Z,6.70
2023-09-11T10:35:33.214Z,6.77
2023-09-11T10:38:37.819Z,6.55
2023-09-11T10:41:41.505Z,6.50
2023-09-11T10:44:45.890Z,6.72
2023-09-11T10:47:52.715Z,6.68
2023-09-11T10:50:58.877Z,6.57
2023-09-11T10:54:01.960Z,6.25
2023-09-11T10:57:07.038Z,6.10
2023-09-11T11:00:13.850Z,7.03
2023-09-11T11:03:17.281Z,6.90
2023-09-11T11:06:23.716Z,6.72
2023-09-11T11:09:33.295Z,6.70
2023-09-11T11:12:40.460Z,7.13
2023-09-11T11:15:45.407Z,6.43
2023-09-11T11:18:48.524Z,6.43
2023-09-11T11:21:51.674Z,7.00
2023-09-11T11:24:56.586Z,6.50
2023-09-11T11:28:08.113Z,7.32
2023-09-11T11:48:42.015Z,6.53
2023-09-11T11:51:46.135Z,6.07
2023-09-11T11:54:49.135Z,6.35
2023-09-11T11:57:53.285Z,5.45
2023-09-11T12:01:00.631Z,5.17
2023-09-11T12:04:06.977Z,5.60
2023-09-11T12:07:11.482Z,5.90
2023-09-11T12:10:14.485Z,5.70
2023-09-11T12:13:18.689Z,5.57
2023-09-11T12:16:21.890Z,6.00
2023-09-11T12:19:26.281Z,5.72
2023-09-11T12:22:29.657Z,5.60
2023-09-11T12:25:32.639Z,5.50
2023-09-11T12:28:36.443Z,5.95
2023-09-11T12:31:39.540Z,5.20
2023-09-11T12:34:47.435Z,4.85
2023-09-11T12:37:50.468Z,4.50
2023-09-11T12:40:57.132Z,4.70
2023-09-11T12:44:01.734Z,4.77
2023-09-11T12:47:05.145Z,4.75
2023-09-11T12:50:10.549Z,4.97
2023-09-11T12:53:13.988Z,4.93
2023-09-11T12:56:22.186Z,5.43
2023-09-11T12:59:25.155Z,5.10
2023-09-11T13:02:33.624Z,5.47
2023-09-11T13:05:38.851Z,4.90
2023-09-11T13:08:42.658Z,5.10
2023-09-11T13:11:45.863Z,5.30
2023-09-11T13:14:49.855Z,5.30
2023-09-11T13:17:53.026Z,5.32
2023-09-11T13:20:57.486Z,4.90
2023-09-11T13:24:00.490Z,4.70
2023-09-11T13:27:03.792Z,4.70
2023-09-11T13:30:08.616Z,4.77
2023-09-11T13:33:11.855Z,4.63
2023-09-11T13:36:16.541Z,4.33
2023-09-11T13:39:19.785Z,4.53
2023-09-11T13:42:25.361Z,4.90
2023-09-11T13:45:28.454Z,4.95
2023-09-11T13:48:31.565Z,4.68
2023-09-11T13:51:35.999Z,4.30
2023-09-11T13:54:39.095Z,4.63
2023-09-11T13:57:42.183Z,4.40
2023-09-11T14:00:45.423Z,4.70
2023-09-11T14:03:48.683Z,4.05
2023-09-11T14:06:53.282Z,3.73
2023-09-11T14:09:56.223Z,4.13
2023-09-11T14:12:59.396Z,4.60
2023-09-11T14:16:02.563Z,4.38
2023-09-11T14:19:08.984Z,4.10
2023-09-11T14:22:13.420Z,3.95
2023-09-11T14:25:16.576Z,4.22
2023-09-11T14:28:19.662Z,4.43
2023-09-11T14:31:23.105Z,3.90
2023-09-11T14:34:26.293Z,3.78
2023-09-11T14:37:30.743Z,4.20
2023-09-11T14:40:33.772Z,4.10
2023-09-11T14:43:37.422Z,4.20
2023-09-11T14:46:40.513Z,3.95
2023-09-11T14:49:43.586Z,3.75
2023-09-11T14:52:48.019Z,4.30
2023-09-11T14:55:50.970Z,4.05
2023-09-11T14:58:54.051Z,4.15
2023-09-11T15:01:57.063Z,3.67
2023-09-11T15:05:00.341Z,4.00
2023-09-11T15:08:05.310Z,4.45
2023-09-11T15:11:08.256Z,3.95
2023-09-11T15:14:11.542Z,3.97
2023-09-11T15:17:14.675Z,4.33
2023-09-11T15:20:17.695Z,4.28
2023-09-11T15:23:22.702Z,4.50
2023-09-11T15:26:25.717Z,4.07
2023-09-11T15:29:28.669Z,4.13
2023-09-11T15:32:31.753Z,4.40
2023-09-11T15:35:35.333Z,4.47
2023-09-11T15:38:43.173Z,4.38
2023-09-11T15:41:46.608Z,4.57
2023-09-11T15:44:50.792Z,4.15
2023-09-11T15:47:59.306Z,4.72
2023-09-11T15:51:03.027Z,4.50
2023-09-11T15:54:07.939Z,4.03
2023-09-11T15:57:11.047Z,4.50
2023-09-11T16:00:15.470Z,4.40
2023-09-11T16:03:20.848Z,4.57
2023-09-11T16:06:24.295Z,5.25
2023-09-11T16:09:30.980Z,4.55
2023-09-11T16:12:35.075Z,4.57
2023-09-11T16:15:39.444Z,5.03
2023-09-11T16:18:42.751Z,5.15
2023-09-11T16:21:45.948Z,6.53
2023-09-11T16:24:50.283Z,5.20
2023-09-11T16:27:53.310Z,5.90
2023-09-11T16:30:56.260Z,6.20
2023-09-11T16:33:59.389Z,6.03
2023-09-11T16:37:03.760Z,6.40
2023-09-11T16:40:09.626Z,7.43
2023-09-11T16:43:12.581Z,7.88
2023-09-11T16:46:15.630Z,6.22
2023-09-11T16:49:21.660Z,6.93
2023-09-11T16:52:24.620Z,7.60
2023-09-11T16:55:28.926Z,6.90
2023-09-11T16:58:31.964Z,6.65
2023-09-11T17:01:34.942Z,6.57
2023-09-11T17:04:37.909Z,6.82
2023-09-11T17:07:41.101Z,6.60
2023-09-11T17:10:45.412Z,7.10
2023-09-11T17:13:48.381Z,6.10
2023-09-11T17:16:51.400Z,6.53
2023-09-11T17:19:57.029Z,7.47
2023-09-11T17:23:00.833Z,6.90
2023-09-11T17:26:05.170Z,6.63
2023-09-11T17:29:08.165Z,7.07
2023-09-11T17:32:12.585Z,6.75
2023-09-11T17:35:15.702Z,6.47
2023-09-11T17:38:19.529Z,7.55
2023-09-11T17:41:23.836Z,6.78
2023-09-11T17:44:28.469Z,6.83
2023-09-11T17:47:31.437Z,7.38
2023-09-11T17:50:34.921Z,8.00
2023-09-11T17:53:38.281Z,10.50
2023-09-11T17:56:42.592Z,8.37
2023-09-11T17:59:45.854Z,7.50
2023-09-11T18:02:48.983Z,7.73
2023-09-11T18:05:52.119Z,7.97
2023-09-11T18:08:57.047Z,7.28
2023-09-11T18:12:01.565Z,7.07
2023-09-11T18:15:05.424Z,7.63
2023-09-11T18:18:08.774Z,7.30
2023-09-11T18:21:11.895Z,8.02
2023-09-11T18:24:14.910Z,8.07
2023-09-11T18:27:19.315Z,7.47
2023-09-11T18:30:22.462Z,7.78
2023-09-11T18:33:26.229Z,7.50
2023-09-11T18:36:29.390Z,8.15
2023-09-11T18:39:32.409Z,7.83
2023-09-11T18:42:36.808Z,7.45
2023-09-11T18:45:39.762Z,8.40
2023-09-11T18:48:43.061Z,8.90
2023-09-11T18:51:46.625Z,7.65
2023-09-11T18:54:50.395Z,8.73
2023-09-11T18:57:54.792Z,7.93
2023-09-11T19:00:57.977Z,7.88
2023-09-11T19:04:02.417Z,9.13
2023-09-11T19:07:05.982Z,8.25
2023-09-11T19:10:11.239Z,8.60
2023-09-11T19:13:15.958Z,7.97
2023-09-11T19:16:20.338Z,8.18
2023-09-11T19:19:23.588Z,8.67
2023-09-11T19:22:26.795Z,8.52
2023-09-11T19:25:29.836Z,8.43
2023-09-11T19:28:34.163Z,8.50
2023-09-11T19:31:37.157Z,8.75
2023-09-11T19:34:40.096Z,8.75
2023-09-11T19:37:43.032Z,8.95
2023-09-11T19:40:45.953Z,8.63
2023-09-11T19:43:50.284Z,9.23
2023-09-11T19:46:56.486Z,10.00
2023-09-11T19:50:00.293Z,10.63
2023-09-11T19:53:03.777Z,10.07
2023-09-11T19:56:07.080Z,10.30
2023-09-11T19:59:11.592Z,9.55
2023-09-11T20:02:18.195Z,10.43
2023-09-11T20:05:21.382Z,10.65
2023-09-11T20:08:24.366Z,11.02
2023-09-11T20:11:28.226Z,10.17
2023-09-11T20:14:32.487Z,10.32
2023-09-11T20:17:35.599Z,11.02
2023-09-11T20:20:39.305Z,10.60
2023-09-11T20:23:42.316Z,11.27
2023-09-11T20:26:45.280Z,11.27
2023-09-11T20:29:50.411Z,11.63
2023-09-11T20:32:53.463Z,10.68
2023-09-11T20:35:56.502Z,11.27
2023-09-11T20:38:59.501Z,11.63
2023-09-11T20:42:02.484Z,11.55
2023-09-11T20:45:08.110Z,11.35
2023-09-11T20:48:11.512Z,10.70
2023-09-11T20:51:16.418Z,11.40
2023-09-11T20:54:19.809Z,12.25
2023-09-11T20:57:22.871Z,12.00
2023-09-11T21:00:27.269Z,11.88
2023-09-11T21:03:30.302Z,12.15
2023-09-11T21:06:33.397Z,11.82
2023-09-11T21:09:36.695Z,11.30
2023-09-11T21:12:52.982Z,11.63
2023-09-11T21:15:57.550Z,11.00
2023-09-11T21:19:00.511Z,11.15
2023-09-11T21:22:03.448Z,11.63
2023-09-11T21:25:08.292Z,11.85
2023-09-11T21:28:11.203Z,11.45
2023-09-11T21:31:15.525Z,11.32
2023-09-11T21:34:18.489Z,11.68
2023-09-11T21:37:21.564Z,10.87
2023-09-11T21:40:24.604Z,11.30
2023-09-11T21:43:27.908Z,12.52
2023-09-11T21:46:32.306Z,10.52
2023-09-11T21:49:35.353Z,11.23
2023-09-11T21:52:38.272Z,10.55
2023-09-11T21:55:41.285Z,10.65
2023-09-11T21:58:44.266Z,10.50
2023-09-11T22:01:48.728Z,10.97
2023-09-11T22:04:51.788Z,10.80
2023-09-11T22:07:54.737Z,10.93
2023-09-11T22:10:59.091Z,11.57
2023-09-11T22:14:02.645Z,10.73
2023-09-11T22:17:08.700Z,10.90
2023-09-11T22:20:12.834Z,10.60
2023-09-11T22:23:15.765Z,10.55
2023-09-11T22:26:18.703Z,11.07
2023-09-11T22:29:21.670Z,10.57
2023-09-11T22:32:26.013Z,10.05
2023-09-11T22:35:35.083Z,10.75
2023-09-11T22:38:44.845Z,10.75
2023-09-11T22:41:47.821Z,10.50
2023-09-11T22:44:52.093Z,11.15
2023-09-11T22:47:56.521Z,11.07
2023-09-11T22:50:59.577Z,11.57
2023-09-11T22:54:02.589Z,10.60
2023-09-11T22:57:06.265Z,10.20
2023-09-11T23:00:10.138Z,10.18
2023-09-11T23:03:14.977Z,10.90
2023-09-11T23:06:18.535Z,10.52
2023-09-11T23:09:21.522Z,11.17
2023-09-11T23:12:24.608Z,11.13
2023-09-11T23:15:27.659Z,12.02
2023-09-11T23:18:32.092Z,11.32
2023-09-11T23:21:35.096Z,11.20
2023-09-11T23:24:39.332Z,11.40
2023-09-11T23:27:42.369Z,11.23
2023-09-11T23:30:45.838Z,11.50
2023-09-11T23:33:50.291Z,11.50
2023-09-11T23:36:54.247Z,11.53
2023-09-11T23:39:57.178Z,10.32
2023-09-11T23:43:00.174Z,9.95
2023-09-11T23:46:04.933Z,10.30
2023-09-11T23:49:09.324Z,10.80
2023-09-11T23:52:25.617Z,10.30
2023-09-11T23:55:29.889Z,10.52
2023-09-11T23:58:32.969Z,10.73
